createdAt,value
2018-04-18T00:01:53.738Z,93.70
2018-04-18T00:05:56.617Z,93.80
2018-04-18T00:09:59.389Z,93.60
2018-04-18T00:14:02.116Z,93.70
2018-04-18T00:18:04.861Z,93.80
2018-04-18T00:22:07.648Z,93.90
2018-04-18T00:26:10.555Z,93.90
2018-04-18T00:30:14.049Z,94.00
2018-04-18T00:34:17.921Z,94.30
2018-04-18T00:38:20.641Z,94.00
2018-04-18T00:42:23.456Z,93.90
2018-04-18T00:46:26.201Z,93.90
2018-04-18T00:50:29.011Z,94.30
2018-04-18T00:54:31.755Z,94.30
2018-04-18T00:58:34.701Z,94.40
2018-04-18T01:02:37.449Z,94.30
2018-04-18T01:06:40.322Z,94.70
2018-04-18T01:10:43.069Z,94.40
2018-04-18T01:14:45.857Z,94.50
2018-04-18T01:18:48.612Z,94.60
2018-04-18T01:22:51.467Z,94.50
2018-04-18T01:26:54.990Z,94.50
2018-04-18T01:30:58.557Z,94.50
2018-04-18T01:35:01.386Z,94.50
2018-04-18T01:39:04.361Z,94.50
2018-04-18T01:43:07.090Z,94.50
2018-04-18T01:47:10.653Z,95.10
2018-04-18T01:51:13.412Z,94.80
2018-04-18T01:55:16.977Z,94.70
2018-04-18T01:59:19.773Z,94.70
2018-04-18T02:03:22.518Z,94.90
2018-04-18T02:07:26.029Z,94.90
2018-04-18T02:11:29.713Z,95.00
2018-04-18T02:15:32.573Z,95.00
2018-04-18T02:19:35.410Z,95.00
2018-04-18T02:23:38.146Z,95.00
2018-04-18T02:27:41.737Z,95.00
2018-04-18T02:31:44.545Z,95.00
2018-04-18T02:35:47.375Z,95.00
2018-04-18T02:39:50.140Z,95.10
2018-04-18T02:43:52.878Z,95.20
2018-04-18T02:47:55.633Z,95.50
2018-04-18T02:51:58.423Z,95.10
2018-04-18T02:56:01.146Z,95.10
2018-04-18T03:00:04.873Z,95.30
2018-04-18T03:04:08.452Z,95.40
2018-04-18T03:08:11.398Z,95.40
2018-04-18T03:12:14.141Z,95.40
2018-04-18T03:16:17.095Z,95.40
2018-04-18T03:20:20.088Z,95.50
2018-04-18T03:24:22.848Z,95.40
2018-04-18T03:28:25.777Z,95.40
2018-04-18T03:32:29.273Z,95.40
2018-04-18T03:36:32.193Z,95.40
2018-04-18T03:40:35.695Z,95.40
2018-04-18T03:44:39.562Z,95.40
2018-04-18T03:48:42.344Z,95.50
2018-04-18T03:52:45.211Z,95.60
2018-04-18T03:56:48.156Z,95.60
2018-04-18T04:00:51.282Z,95.60
2018-04-18T04:04:54.008Z,95.50
2018-04-18T04:08:56.823Z,95.60
2018-04-18T04:12:59.956Z,95.70
2018-04-18T04:17:14.734Z,95.80
2018-04-18T04:21:30.099Z,96.00
2018-04-18T04:25:32.949Z,96.00
2018-04-18T04:29:35.740Z,96.00
2018-04-18T04:33:38.571Z,96.10
2018-04-18T04:37:42.145Z,96.10
2018-04-18T04:41:44.937Z,96.10
2018-04-18T04:45:47.703Z,96.10
2018-04-18T04:49:50.473Z,96.20
2018-04-18T04:53:54.018Z,96.20
2018-04-18T04:57:56.766Z,96.20
2018-04-18T05:01:59.613Z,96.20
2018-04-18T05:06:02.399Z,96.40
2018-04-18T05:10:05.190Z,96.50
2018-04-18T05:14:08.066Z,96.60
2018-04-18T05:18:10.851Z,96.60
2018-04-18T05:22:13.615Z,96.70
2018-04-18T05:26:16.437Z,96.70
2018-04-18T05:30:19.293Z,96.80
2018-04-18T05:34:22.051Z,96.80
2018-04-18T05:38:24.906Z,96.90
2018-04-18T05:42:28.254Z,96.90
2018-04-18T05:46:31.076Z,97.20
2018-04-18T05:50:34.991Z,96.90
2018-04-18T05:54:37.985Z,96.90
2018-04-18T05:58:40.948Z,96.80
2018-04-18T06:02:44.751Z,96.80
2018-04-18T06:06:47.474Z,96.80
2018-04-18T06:10:50.220Z,96.80
2018-04-18T06:14:53.755Z,96.50
2018-04-18T06:18:56.500Z,96.50
2018-04-18T06:22:59.303Z,96.20
2018-04-18T06:27:02.197Z,96.50
2018-04-18T06:31:04.948Z,96.20
2018-04-18T06:35:07.781Z,95.10
2018-04-18T06:39:10.646Z,94.30
2018-04-18T06:43:13.433Z,93.50
2018-04-18T06:47:17.097Z,91.40
2018-04-18T06:51:19.881Z,91.40
2018-04-18T06:55:25.113Z,90.50
2018-04-18T06:59:27.960Z,90.00
2018-04-18T07:03:34.295Z,89.30
2018-04-18T07:07:37.478Z,87.40
2018-04-18T07:11:41.005Z,85.10
2018-04-18T07:15:43.937Z,84.60
2018-04-18T07:19:48.591Z,81.40
2018-04-18T07:23:53.881Z,82.10
2018-04-18T07:27:57.083Z,76.40
2018-04-18T07:31:59.815Z,75.40
2018-04-18T07:36:02.626Z,75.30
2018-04-18T07:40:07.967Z,72.60
2018-04-18T07:44:10.805Z,73.40
2018-04-18T07:48:13.605Z,71.00
2018-04-18T07:52:16.424Z,71.20
2018-04-18T07:56:19.265Z,68.20
2018-04-18T08:00:22.159Z,70.00
2018-04-18T08:04:25.008Z,66.90
2018-04-18T08:08:27.863Z,66.90
2018-04-18T08:12:30.673Z,64.60
2018-04-18T08:16:33.573Z,64.10
2018-04-18T08:20:36.399Z,63.80
2018-04-18T08:24:39.186Z,65.00
2018-04-18T08:28:42.179Z,62.30
2018-04-18T08:32:44.923Z,63.10
2018-04-18T08:36:48.438Z,59.80
2018-04-18T08:40:52.227Z,58.40
2018-04-18T08:44:54.979Z,58.30
2018-04-18T08:48:57.925Z,57.80
2018-04-18T08:53:00.726Z,56.80
2018-04-18T08:57:03.562Z,53.60
2018-04-18T09:01:07.161Z,50.30
2018-04-18T09:05:10.009Z,50.30
2018-04-18T09:09:12.880Z,51.10
2018-04-18T09:13:16.379Z,48.20
2018-04-18T09:17:19.948Z,50.00
2018-04-18T09:21:22.739Z,49.30
2018-04-18T09:25:25.473Z,45.60
2018-04-18T09:29:28.318Z,46.40
2018-04-18T09:33:31.055Z,45.10
2018-04-18T09:37:33.846Z,44.50
2018-04-18T09:41:37.420Z,45.10
2018-04-18T09:45:40.157Z,45.10
2018-04-18T09:49:42.977Z,43.20
2018-04-18T09:53:45.720Z,43.00
2018-04-18T09:57:48.472Z,40.90
2018-04-18T10:01:51.492Z,44.40
2018-04-18T10:05:55.217Z,39.40
2018-04-18T10:10:00.274Z,39.60
2018-04-18T10:14:03.231Z,39.50
2018-04-18T10:18:06.306Z,37.40
2018-04-18T10:22:09.170Z,36.80
2018-04-18T10:26:12.865Z,36.80
2018-04-18T10:30:16.989Z,36.70
2018-04-18T10:34:19.973Z,38.30
2018-04-18T10:38:22.835Z,37.60
2018-04-18T10:42:25.704Z,36.20
2018-04-18T10:46:28.437Z,32.30
2018-04-18T10:50:31.575Z,32.30
2018-04-18T10:54:34.599Z,32.00
2018-04-18T10:58:37.573Z,28.40
2018-04-18T11:02:40.722Z,30.40
2018-04-18T11:06:43.677Z,29.90
2018-04-18T11:10:46.661Z,28.50
2018-04-18T11:14:49.483Z,28.00
2018-04-18T11:18:52.274Z,30.00
2018-04-18T11:22:54.988Z,27.50
2018-04-18T11:26:57.744Z,28.10
2018-04-18T11:31:02.642Z,25.70
2018-04-18T11:35:05.530Z,23.60
2018-04-18T11:39:08.296Z,23.90
2018-04-18T11:43:11.120Z,23.40
2018-04-18T11:47:13.914Z,24.30
2018-04-18T11:51:16.683Z,23.60
2018-04-18T11:55:23.290Z,23.90
2018-04-18T11:59:26.441Z,23.80
2018-04-18T12:03:29.192Z,23.80
2018-04-18T12:07:32.009Z,23.70
2018-04-18T12:11:34.997Z,20.50
2018-04-18T12:15:38.005Z,23.10
2018-04-18T12:19:40.818Z,21.00
2018-04-18T12:23:43.675Z,21.80
2018-04-18T12:27:46.449Z,21.90
2018-04-18T12:31:50.362Z,19.90
2018-04-18T12:35:53.389Z,19.90
2018-04-18T12:39:56.864Z,19.80
2018-04-18T12:43:59.731Z,22.60
2018-04-18T12:48:02.458Z,24.80
2018-04-18T12:52:06.570Z,25.90
2018-04-18T12:56:09.337Z,25.10
2018-04-18T13:00:29.194Z,24.70
2018-04-18T13:04:32.813Z,25.30
2018-04-18T13:08:36.356Z,25.90
2018-04-18T13:12:40.252Z,25.90
2018-04-18T13:16:43.100Z,24.00
2018-04-18T13:20:45.905Z,25.00
2018-04-18T13:24:48.916Z,22.90
2018-04-18T13:28:51.811Z,23.60
2018-04-18T13:32:55.622Z,22.00
2018-04-18T13:36:58.419Z,21.90
2018-04-18T13:41:01.280Z,22.20
2018-04-18T13:45:04.322Z,22.50
2018-04-18T13:49:08.026Z,22.30
2018-04-18T13:53:11.037Z,22.30
2018-04-18T13:57:13.946Z,22.40
2018-04-18T14:01:17.072Z,22.70
2018-04-18T14:05:20.343Z,20.10
2018-04-18T14:09:24.800Z,18.70
2018-04-18T14:13:28.047Z,18.70
2018-04-18T14:17:31.874Z,21.00
2018-04-18T14:21:35.454Z,21.20
2018-04-18T14:25:38.453Z,21.20
2018-04-18T14:29:42.106Z,18.70
2018-04-18T14:33:45.890Z,18.70
2018-04-18T14:37:49.035Z,18.70
2018-04-18T14:41:52.810Z,21.00
2018-04-18T14:45:55.906Z,20.90
2018-04-18T14:49:58.821Z,24.40
2018-04-18T14:54:02.715Z,24.20
2018-04-18T14:58:05.916Z,24.50
2018-04-18T15:02:08.869Z,25.60
2018-04-18T15:06:13.582Z,25.50
2018-04-18T15:10:17.487Z,25.90
2018-04-18T15:14:20.369Z,25.80
2018-04-18T15:18:30.419Z,26.50
2018-04-18T15:22:34.076Z,27.30
2018-04-18T15:26:39.653Z,27.40
2018-04-18T15:30:42.792Z,28.30
2018-04-18T15:34:46.473Z,28.70
2018-04-18T15:38:49.387Z,29.20
2018-04-18T15:42:52.381Z,30.90
2018-04-18T15:46:55.361Z,28.20
2018-04-18T15:50:58.095Z,30.00
2018-04-18T15:55:01.124Z,27.30
2018-04-18T15:59:04.691Z,30.00
2018-04-18T16:03:07.694Z,30.00
2018-04-18T16:07:10.505Z,31.10
2018-04-18T16:11:13.345Z,32.40
2018-04-18T16:15:16.912Z,33.20
2018-04-18T16:19:22.135Z,33.10
2018-04-18T16:23:24.913Z,33.70
2018-04-18T16:27:28.529Z,33.00
2018-04-18T16:31:32.052Z,34.10
2018-04-18T16:35:35.543Z,38.40
2018-04-18T16:39:38.342Z,38.30
2018-04-18T16:43:41.230Z,40.60
2018-04-18T16:47:45.002Z,35.60
2018-04-18T16:51:47.841Z,35.10
2018-04-18T16:55:50.593Z,40.40
2018-04-18T16:59:53.418Z,40.30
2018-04-18T17:03:56.176Z,41.80
2018-04-18T17:08:03.189Z,40.10
2018-04-18T17:12:05.967Z,40.20
2018-04-18T17:16:09.701Z,46.20
2018-04-18T17:20:12.451Z,46.00
2018-04-18T17:24:21.882Z,46.00
2018-04-18T17:28:24.727Z,49.30
2018-04-18T17:32:27.581Z,52.70
2018-04-18T17:36:30.414Z,52.40
2018-04-18T17:40:34.032Z,54.30
2018-04-18T17:44:37.929Z,56.20
2018-04-18T17:48:41.022Z,56.10
2018-04-18T17:52:44.007Z,54.90
2018-04-18T17:56:47.613Z,57.60
2018-04-18T18:00:51.549Z,58.00
2018-04-18T18:04:54.379Z,58.70
2018-04-18T18:08:58.351Z,58.50
2018-04-18T18:13:01.467Z,59.60
2018-04-18T18:17:04.227Z,60.00
2018-04-18T18:21:08.087Z,59.90
2018-04-18T18:25:11.564Z,59.80
2018-04-18T18:29:14.682Z,61.00
2018-04-18T18:33:18.028Z,62.60
2018-04-18T18:37:20.890Z,64.60
2018-04-18T18:41:23.955Z,64.40
2018-04-18T18:45:27.315Z,64.30
2018-04-18T18:49:30.544Z,64.70
2018-04-18T18:53:34.674Z,67.50
2018-04-18T18:57:37.454Z,67.50
2018-04-18T19:01:40.877Z,66.90
2018-04-18T19:05:44.085Z,67.10
2018-04-18T19:09:47.188Z,68.90
2018-04-18T19:13:50.175Z,69.50
2018-04-18T19:17:53.459Z,68.70
2018-04-18T19:22:00.105Z,69.90
2018-04-18T19:26:03.278Z,69.80
2018-04-18T19:30:06.113Z,69.90
2018-04-18T19:34:08.967Z,71.20
2018-04-18T19:38:12.508Z,72.70
2018-04-18T19:42:18.577Z,72.70
2018-04-18T19:46:24.068Z,73.30
2018-04-18T19:50:26.829Z,73.60
2018-04-18T19:54:29.590Z,74.00
2018-04-18T19:58:32.338Z,74.70
2018-04-18T20:02:35.356Z,75.40
2018-04-18T20:06:38.966Z,75.40
2018-04-18T20:10:41.740Z,75.40
2018-04-18T20:14:44.785Z,77.30
2018-04-18T20:18:47.508Z,76.80
2018-04-18T20:22:51.264Z,77.60
2018-04-18T20:26:54.035Z,77.60
2018-04-18T20:30:57.038Z,77.60
2018-04-18T20:35:01.082Z,78.00
2018-04-18T20:39:04.037Z,78.00
2018-04-18T20:43:06.806Z,79.00
2018-04-18T20:47:09.553Z,78.80
2018-04-18T20:51:13.074Z,80.60
2018-04-18T20:55:16.660Z,80.20
2018-04-18T20:59:19.418Z,80.20
2018-04-18T21:03:22.246Z,80.30
2018-04-18T21:07:25.065Z,81.40
2018-04-18T21:11:27.909Z,81.40
2018-04-18T21:15:30.718Z,83.10
2018-04-18T21:19:34.262Z,82.40
2018-04-18T21:23:39.077Z,82.90
2018-04-18T21:27:41.872Z,82.90
2018-04-18T21:31:44.608Z,82.80
2018-04-18T21:35:47.414Z,83.30
2018-04-18T21:39:50.184Z,83.50
2018-04-18T21:43:52.977Z,84.50
2018-04-18T21:47:55.721Z,84.70
2018-04-18T21:51:58.526Z,84.90
2018-04-18T21:56:02.094Z,85.30
2018-04-18T22:00:04.965Z,86.00
2018-04-18T22:04:07.878Z,85.90
2018-04-18T22:08:10.617Z,86.20
2018-04-18T22:12:13.367Z,86.30
2018-04-18T22:16:16.171Z,87.10
2018-04-18T22:20:18.946Z,86.80
2018-04-18T22:24:21.843Z,87.40
2018-04-18T22:28:25.513Z,87.70
2018-04-18T22:32:28.246Z,88.00
2018-04-18T22:36:31.973Z,88.30
2018-04-18T22:40:34.761Z,88.10
2018-04-18T22:44:38.265Z,88.20
2018-04-18T22:48:42.036Z,89.30
2018-04-18T22:52:44.807Z,89.20
2018-04-18T22:56:48.956Z,88.60
2018-04-18T23:00:51.808Z,88.90
2018-04-18T23:04:54.638Z,89.00
2018-04-18T23:08:57.392Z,90.20
2018-04-18T23:13:00.141Z,90.00
2018-04-18T23:17:04.079Z,90.00
2018-04-18T23:21:06.826Z,90.00
2018-04-18T23:25:10.364Z,90.50
2018-04-18T23:29:13.117Z,90.40
2018-04-18T23:33:15.832Z,90.40
2018-04-18T23:37:19.406Z,90.40
2018-04-18T23:41:22.204Z,90.40
2018-04-18T23:45:25.001Z,90.40
2018-04-18T23:49:27.782Z,90.40
2018-04-18T23:53:30.585Z,90.60
2018-04-18T23:57:33.349Z,90.80
